createdAt,value
2023-03-13T00:01:00.521Z,7.812
2023-03-13T00:04:01.069Z,7.687
2023-03-13T00:07:00.683Z,7.687
2023-03-13T00:10:01.085Z,7.812
2023-03-13T00:13:00.014Z,7.625
2023-03-13T00:16:01.661Z,7.562
2023-03-13T00:19:00.234Z,7.562
2023-03-13T00:22:01.151Z,7.687
2023-03-13T00:25:00.542Z,7.125
2023-03-13T00:28:00.140Z,7.125
2023-03-13T00:31:00.466Z,7.312
2023-03-13T00:33:59.765Z,7.437
2023-03-13T00:37:00.652Z,7.562
2023-03-13T00:40:00.228Z,7.375
2023-03-13T00:43:02.661Z,7.125
2023-03-13T00:46:02.446Z,7.062
2023-03-13T00:49:01.066Z,6.75
2023-03-13T00:52:00.864Z,6.562
2023-03-13T00:55:00.012Z,6.562
2023-03-13T00:58:00.551Z,6.625
2023-03-13T01:01:01.535Z,6.625
2023-03-13T01:04:01.196Z,6.625
2023-03-13T01:07:00.360Z,6.875
2023-03-13T01:10:00.774Z,7.0
2023-03-13T01:13:01.526Z,6.937
2023-03-13T01:16:00.220Z,6.937
2023-03-13T01:19:00.729Z,7.125
2023-03-13T01:22:01.023Z,7.0
2023-03-13T01:25:01.148Z,7.187
2023-03-13T01:28:00.870Z,7.0
2023-03-13T01:31:01.812Z,6.812
2023-03-13T01:34:01.058Z,7.125
2023-03-13T01:37:01.039Z,7.0
2023-03-13T01:40:00.288Z,7.0
2023-03-13T01:43:01.449Z,7.0
2023-03-13T01:46:00.372Z,7.062
2023-03-13T01:49:00.519Z,7.0
2023-03-13T01:52:02.927Z,7.0
2023-03-13T01:55:00.440Z,6.75
2023-03-13T01:58:03.362Z,6.875
2023-03-13T02:01:02.025Z,6.875
2023-03-13T02:03:59.673Z,6.875
2023-03-13T02:06:59.946Z,6.812
2023-03-13T02:10:01.127Z,6.875
2023-03-13T02:12:59.467Z,6.812
2023-03-13T02:16:01.398Z,6.937
2023-03-13T02:18:59.807Z,6.875
2023-03-13T02:22:00.938Z,6.875
2023-03-13T02:25:01.342Z,7.125
2023-03-13T02:28:00.234Z,7.062
2023-03-13T02:31:01.096Z,7.062
2023-03-13T02:34:00.954Z,7.25
2023-03-13T02:36:59.889Z,7.0
2023-03-13T02:40:00.977Z,6.875
2023-03-13T02:43:01.000Z,6.687
2023-03-13T02:46:00.683Z,6.75
2023-03-13T02:49:00.549Z,6.75
2023-03-13T02:52:00.361Z,6.312
2023-03-13T02:55:00.946Z,6.187
2023-03-13T02:58:00.902Z,6.187
2023-03-13T03:01:00.666Z,6.187
2023-03-13T03:03:59.807Z,6.125
2023-03-13T03:07:00.635Z,6.0
2023-03-13T03:10:01.539Z,5.937
2023-03-13T03:13:00.020Z,5.875
2023-03-13T03:16:00.868Z,6.0
2023-03-13T03:19:01.406Z,6.0
2023-03-13T03:22:01.339Z,5.937
2023-03-13T03:25:00.536Z,5.937
2023-03-13T03:28:00.361Z,5.875
2023-03-13T03:31:00.931Z,5.875
2023-03-13T03:34:00.641Z,5.937
2023-03-13T03:36:59.855Z,6.125
2023-03-13T03:40:00.394Z,6.062
2023-03-13T03:43:00.551Z,6.062
2023-03-13T03:46:01.281Z,6.062
2023-03-13T03:49:00.799Z,6.125
2023-03-13T03:52:00.356Z,6.125
2023-03-13T03:55:01.116Z,6.0
2023-03-13T03:58:00.913Z,5.875
2023-03-13T04:01:00.890Z,5.875
2023-03-13T04:04:00.998Z,5.875
2023-03-13T04:07:00.280Z,5.937
2023-03-13T04:10:00.609Z,6.0
2023-03-13T04:13:00.536Z,6.0
2023-03-13T04:15:59.642Z,6.062
2023-03-13T04:18:59.817Z,6.0
2023-03-13T04:22:00.526Z,6.125
2023-03-13T04:25:00.553Z,6.125
2023-03-13T04:28:02.198Z,6.187
2023-03-13T04:31:01.312Z,6.187
2023-03-13T04:34:00.379Z,6.25
2023-03-13T04:37:00.776Z,6.125
2023-03-13T04:40:02.312Z,6.0
2023-03-13T04:43:02.108Z,6.125
2023-03-13T04:46:01.318Z,6.062
2023-03-13T04:48:59.912Z,6.0
2023-03-13T04:52:01.346Z,6.062
2023-03-13T04:55:00.002Z,6.125
2023-03-13T04:58:00.978Z,6.125
2023-03-13T05:01:00.871Z,6.187
2023-03-13T05:04:01.397Z,6.062
2023-03-13T05:07:02.555Z,6.062
2023-03-13T05:10:00.169Z,6.125
2023-03-13T05:13:00.574Z,6.125
2023-03-13T05:16:01.552Z,6.187
2023-03-13T05:19:00.343Z,6.062
2023-03-13T05:22:00.659Z,6.312
2023-03-13T05:25:02.828Z,6.312
2023-03-13T05:28:00.889Z,6.125
2023-03-13T05:31:00.847Z,6.125
2023-03-13T05:34:00.522Z,6.312
2023-03-13T05:37:00.856Z,6.5
2023-03-13T05:40:00.206Z,6.5
2023-03-13T05:43:00.919Z,6.437
2023-03-13T05:46:00.697Z,6.562
2023-03-13T05:49:01.514Z,6.625
2023-03-13T05:52:02.848Z,6.687
2023-03-13T05:55:04.084Z,6.812
2023-03-13T05:58:02.640Z,6.812
2023-03-13T06:01:07.604Z,6.812
2023-03-13T06:03:59.028Z,7.125
2023-03-13T06:07:01.344Z,7.625
2023-03-13T06:10:00.317Z,7.625
2023-03-13T06:13:18.641Z,7.5
2023-03-13T06:16:08.164Z,7.875
2023-03-13T06:19:05.640Z,7.937
2023-03-13T06:21:59.901Z,8.375
2023-03-13T06:25:01.069Z,8.812
2023-03-13T06:28:02.104Z,8.937
2023-03-13T06:31:04.377Z,9.062
2023-03-13T06:34:04.222Z,8.875
2023-03-13T06:37:00.561Z,8.875
2023-03-13T06:40:01.326Z,8.437
2023-03-13T06:43:01.890Z,8.5
2023-03-13T06:46:03.733Z,8.5
2023-03-13T06:49:01.200Z,8.437
2023-03-13T06:52:01.242Z,8.625
2023-03-13T06:55:02.196Z,8.562
2023-03-13T06:58:01.527Z,8.687
2023-03-13T07:01:02.060Z,9.0
2023-03-13T07:04:01.525Z,9.0
2023-03-13T07:07:01.552Z,9.187
2023-03-13T07:10:02.248Z,9.187
2023-03-13T07:13:00.810Z,9.187
2023-03-13T07:16:01.122Z,10.062
2023-03-13T07:19:01.346Z,10.125
2023-03-13T07:22:00.651Z,10.25
2023-03-13T07:25:00.873Z,10.25
2023-03-13T07:28:01.127Z,10.187
2023-03-13T07:31:01.674Z,10.187
2023-03-13T07:34:00.948Z,10.187
2023-03-13T07:37:00.898Z,10.312
2023-03-13T07:40:00.948Z,10.5
2023-03-13T07:43:03.478Z,10.562
2023-03-13T07:46:01.118Z,10.562
2023-03-13T07:49:01.234Z,10.562
2023-03-13T07:52:00.910Z,10.75
2023-03-13T07:55:00.819Z,10.75
2023-03-13T07:58:00.025Z,10.812
2023-03-13T08:01:01.214Z,10.75
2023-03-13T08:04:00.907Z,10.75
2023-03-13T08:07:00.498Z,10.812
2023-03-13T08:10:00.986Z,10.812
2023-03-13T08:13:00.804Z,10.75
2023-03-13T08:16:00.858Z,10.562
2023-03-13T08:19:00.466Z,10.625
2023-03-13T08:22:01.137Z,10.625
2023-03-13T08:25:01.268Z,10.437
2023-03-13T08:28:02.530Z,10.312
2023-03-13T08:31:01.132Z,10.125
2023-03-13T08:34:01.395Z,10.125
2023-03-13T08:37:00.861Z,10.187
2023-03-13T08:40:00.811Z,10.312
2023-03-13T08:43:00.938Z,10.312
2023-03-13T08:46:01.032Z,10.312
2023-03-13T08:49:00.894Z,10.812
2023-03-13T08:52:01.576Z,11.0
2023-03-13T08:55:00.476Z,11.125
2023-03-13T08:58:00.979Z,11.25
2023-03-13T09:01:01.708Z,11.375
2023-03-13T09:04:03.469Z,11.5
2023-03-13T09:07:00.273Z,11.625
2023-03-13T09:10:00.834Z,11.937
2023-03-13T09:13:01.032Z,12.187
2023-03-13T09:16:00.891Z,12.375
2023-03-13T09:19:00.746Z,13.187
2023-03-13T09:22:00.814Z,13.5
2023-03-13T09:25:01.521Z,13.75
2023-03-13T09:28:00.865Z,14.062
2023-03-13T09:31:01.341Z,13.687
2023-03-13T09:34:01.015Z,13.5
2023-03-13T09:37:00.852Z,13.187
2023-03-13T09:40:01.164Z,13.062
2023-03-13T09:43:00.450Z,13.062
2023-03-13T09:46:01.148Z,13.125
2023-03-13T09:49:01.606Z,13.25
2023-03-13T09:52:00.707Z,13.25
2023-03-13T09:55:00.440Z,13.125
2023-03-13T09:58:00.628Z,13.125
2023-03-13T10:01:01.821Z,13.125
2023-03-13T10:04:00.756Z,13.187
2023-03-13T10:07:00.800Z,13.375
2023-03-13T10:10:00.208Z,13.687
2023-03-13T10:13:00.919Z,13.875
2023-03-13T10:16:01.479Z,14.062
2023-03-13T10:19:01.279Z,13.937
2023-03-13T10:22:00.904Z,13.937
2023-03-13T10:25:00.678Z,13.937
2023-03-13T10:28:00.669Z,13.875
2023-03-13T10:31:01.057Z,13.875
2023-03-13T10:33:59.870Z,13.937
2023-03-13T10:37:00.561Z,13.437
2023-03-13T10:40:01.523Z,13.375
2023-03-13T10:43:02.529Z,13.312
2023-03-13T10:46:00.280Z,13.562
2023-03-13T10:49:01.568Z,13.562
2023-03-13T10:52:01.104Z,14.125
2023-03-13T10:55:00.943Z,15.437
2023-03-13T10:58:01.105Z,15.312
2023-03-13T11:01:01.180Z,15.562
2023-03-13T11:04:19.465Z,15.375
2023-03-13T11:07:00.910Z,15.375
2023-03-13T11:10:01.441Z,15.625
2023-03-13T11:13:00.923Z,15.812
2023-03-13T11:16:00.478Z,16.562
2023-03-13T11:19:00.753Z,16.125
2023-03-13T11:22:00.694Z,15.812
2023-03-13T11:25:01.127Z,15.75
2023-03-13T11:28:00.258Z,16.125
2023-03-13T11:31:01.327Z,16.437
2023-03-13T11:33:59.816Z,16.0
2023-03-13T11:37:00.337Z,16.312
2023-03-13T11:40:01.697Z,16.187
2023-03-13T11:43:03.338Z,16.187
2023-03-13T11:46:02.097Z,16.687
2023-03-13T11:49:00.466Z,16.437
2023-03-13T11:52:00.622Z,16.437
2023-03-13T11:55:01.837Z,15.687
2023-03-13T11:58:00.306Z,15.375
2023-03-13T12:01:00.651Z,15.687
2023-03-13T12:04:00.987Z,15.437
2023-03-13T12:07:03.552Z,15.437
2023-03-13T12:10:00.937Z,16.25
2023-03-13T12:13:00.548Z,15.375
2023-03-13T12:16:00.490Z,16.187
2023-03-13T12:19:02.201Z,15.875
2023-03-13T12:22:02.541Z,16.812
2023-03-13T12:25:01.935Z,16.812
2023-03-13T12:28:00.788Z,17.0
2023-03-13T12:31:01.697Z,16.312
2023-03-13T12:34:00.781Z,17.937
2023-03-13T12:37:00.815Z,17.937
2023-03-13T12:40:00.422Z,17.687
2023-03-13T12:43:00.984Z,17.687
2023-03-13T12:46:01.043Z,18.437
2023-03-13T12:49:01.015Z,18.437
2023-03-13T12:52:01.543Z,18.437
2023-03-13T12:55:00.401Z,18.187
2023-03-13T12:58:01.079Z,18.437
2023-03-13T13:01:01.605Z,18.562
2023-03-13T13:04:00.867Z,18.562
2023-03-13T13:07:00.475Z,18.687
2023-03-13T13:10:02.108Z,18.375
2023-03-13T13:13:00.833Z,18.0
2023-03-13T13:16:02.042Z,18.125
2023-03-13T13:19:01.046Z,17.937
2023-03-13T13:22:00.873Z,18.375
2023-03-13T13:25:01.209Z,18.0
2023-03-13T13:28:06.202Z,18.75
2023-03-13T13:31:00.936Z,19.125
2023-03-13T13:34:00.312Z,19.312
2023-03-13T13:37:01.174Z,19.625
2023-03-13T13:40:00.411Z,19.75
2023-03-13T13:43:01.517Z,18.75
2023-03-13T13:46:02.947Z,19.437
2023-03-13T13:49:01.738Z,19.437
2023-03-13T13:52:00.311Z,19.5
2023-03-13T13:55:02.846Z,19.062
2023-03-13T13:58:01.783Z,19.0
2023-03-13T14:01:01.258Z,18.875
2023-03-13T14:04:00.555Z,18.875
2023-03-13T14:07:00.755Z,18.687
2023-03-13T14:10:01.011Z,18.5
2023-03-13T14:13:01.320Z,18.125
2023-03-13T14:16:00.512Z,18.437
2023-03-13T14:19:01.342Z,18.437
2023-03-13T14:22:00.625Z,18.625
2023-03-13T14:25:02.173Z,18.437
2023-03-13T14:28:01.776Z,17.687
2023-03-13T14:31:04.466Z,17.687
2023-03-13T14:34:00.660Z,18.062
2023-03-13T14:37:16.818Z,18.375
2023-03-13T14:40:00.999Z,18.375
2023-03-13T14:43:02.397Z,18.25
2023-03-13T14:46:01.464Z,18.5
2023-03-13T14:49:00.643Z,17.937
2023-03-13T14:52:00.632Z,17.687
2023-03-13T14:55:01.839Z,17.375
2023-03-13T14:58:03.586Z,17.312
2023-03-13T15:01:04.295Z,17.375
2023-03-13T15:04:01.773Z,17.375
2023-03-13T15:07:01.830Z,17.75
2023-03-13T15:10:00.327Z,17.75
2023-03-13T15:13:01.488Z,17.75
2023-03-13T15:16:00.544Z,17.687
2023-03-13T15:19:00.799Z,17.687
2023-03-13T15:22:00.645Z,17.687
2023-03-13T15:25:06.559Z,17.562
2023-03-13T15:28:04.702Z,17.5
2023-03-13T15:31:00.004Z,17.437
2023-03-13T15:34:01.124Z,17.437
2023-03-13T15:37:00.159Z,17.312
2023-03-13T15:40:02.131Z,17.25
2023-03-13T15:43:01.962Z,17.312
2023-03-13T15:46:03.731Z,17.25
2023-03-13T15:49:01.674Z,17.187
2023-03-13T15:52:02.078Z,17.187
2023-03-13T15:55:01.772Z,17.0
2023-03-13T15:58:01.433Z,16.875
2023-03-13T16:01:01.845Z,16.812
2023-03-13T16:04:00.431Z,16.812
2023-03-13T16:07:00.410Z,16.812
2023-03-13T16:10:01.446Z,16.75
2023-03-13T16:13:01.488Z,16.562
2023-03-13T16:16:01.778Z,16.437
2023-03-13T16:19:02.559Z,16.375
2023-03-13T16:22:00.885Z,16.375
2023-03-13T16:24:59.900Z,16.375
2023-03-13T16:28:00.298Z,16.312
2023-03-13T16:31:03.395Z,16.312
2023-03-13T16:34:02.052Z,16.187
2023-03-13T16:37:01.810Z,16.0
2023-03-13T16:40:01.725Z,16.0
2023-03-13T16:43:01.146Z,15.875
2023-03-13T16:46:02.912Z,15.75
2023-03-13T16:49:01.777Z,15.625
2023-03-13T16:52:01.036Z,15.687
2023-03-13T16:55:01.866Z,15.75
2023-03-13T16:58:02.763Z,15.625
2023-03-13T17:01:05.991Z,15.5
2023-03-13T17:04:02.150Z,15.375
2023-03-13T17:07:01.422Z,15.375
2023-03-13T17:10:01.606Z,15.312
2023-03-13T17:13:07.368Z,15.25
2023-03-13T17:16:02.776Z,15.25
2023-03-13T17:19:01.771Z,15.187
2023-03-13T17:22:02.898Z,15.062
2023-03-13T17:25:01.494Z,15.0
2023-03-13T17:28:01.807Z,14.937
2023-03-13T17:31:02.926Z,14.937
2023-03-13T17:34:00.910Z,14.75
2023-03-13T17:37:01.608Z,14.75
2023-03-13T17:40:01.465Z,14.625
2023-03-13T17:43:01.431Z,14.437
2023-03-13T17:46:02.408Z,14.187
2023-03-13T17:49:01.728Z,14.25
2023-03-13T17:52:02.771Z,13.875
2023-03-13T17:55:01.325Z,14.125
2023-03-13T17:58:01.362Z,14.125
2023-03-13T18:01:02.155Z,14.062
2023-03-13T18:04:01.403Z,14.25
2023-03-13T18:07:03.139Z,14.312
2023-03-13T18:10:01.892Z,14.25
2023-03-13T18:13:01.534Z,14.0
2023-03-13T18:16:00.145Z,14.25
2023-03-13T18:19:00.534Z,14.312
2023-03-13T18:22:06.306Z,14.312
2023-03-13T18:25:03.087Z,14.437
2023-03-13T18:28:02.011Z,14.437
2023-03-13T18:31:08.206Z,14.25
2023-03-13T18:34:06.297Z,14.312
2023-03-13T18:37:03.381Z,14.25
2023-03-13T18:40:02.912Z,14.25
2023-03-13T18:43:02.408Z,14.25
2023-03-13T18:46:05.067Z,14.187
2023-03-13T18:49:01.974Z,14.062
2023-03-13T18:52:01.437Z,14.062
2023-03-13T18:55:03.477Z,13.875
2023-03-13T18:58:02.054Z,13.375
2023-03-13T19:01:33.387Z,13.25
2023-03-13T19:04:03.398Z,13.312
2023-03-13T19:07:03.670Z,13.312
2023-03-13T19:10:01.211Z,13.625
2023-03-13T19:13:00.227Z,13.562
2023-03-13T19:16:02.103Z,13.812
2023-03-13T19:19:01.087Z,13.812
2023-03-13T19:22:00.239Z,13.875
2023-03-13T19:25:00.924Z,14.0
2023-03-13T19:28:01.089Z,13.937
2023-03-13T19:31:01.125Z,13.75
2023-03-13T19:34:00.285Z,13.5
2023-03-13T19:36:58.258Z,12.5
2023-03-13T19:40:01.254Z,10.875
2023-03-13T19:43:00.239Z,10.875
2023-03-13T19:46:00.937Z,9.0
2023-03-13T19:49:01.191Z,8.937
2023-03-13T19:52:00.716Z,8.875
2023-03-13T19:55:03.127Z,8.937
2023-03-13T19:58:00.013Z,8.937
2023-03-13T20:01:15.135Z,9.0
2023-03-13T20:04:01.056Z,9.062
2023-03-13T20:07:00.573Z,9.25
2023-03-13T20:10:01.636Z,9.375
2023-03-13T20:13:00.439Z,9.5
2023-03-13T20:15:59.851Z,9.375
2023-03-13T20:19:00.537Z,9.375
2023-03-13T20:22:00.347Z,9.375
2023-03-13T20:25:00.624Z,9.375
2023-03-13T20:28:00.048Z,9.187
2023-03-13T20:31:00.500Z,9.187
2023-03-13T20:34:05.519Z,9.25
2023-03-13T20:37:00.247Z,9.25
2023-03-13T20:40:02.447Z,9.312
2023-03-13T20:43:00.763Z,9.125
2023-03-13T20:46:02.305Z,9.125
2023-03-13T20:49:01.151Z,9.25
2023-03-13T20:52:00.904Z,9.75
2023-03-13T20:55:00.783Z,9.562
2023-03-13T20:57:59.872Z,9.5
2023-03-13T21:01:01.925Z,9.562
2023-03-13T21:04:01.978Z,9.625
2023-03-13T21:06:59.966Z,9.625
2023-03-13T21:10:01.702Z,9.562
2023-03-13T21:13:00.477Z,9.5
2023-03-13T21:16:02.887Z,9.437
2023-03-13T21:19:00.456Z,9.312
2023-03-13T21:22:00.998Z,9.25
2023-03-13T21:25:00.503Z,9.187
2023-03-13T21:28:01.008Z,8.812
2023-03-13T21:31:01.707Z,8.812
2023-03-13T21:34:00.047Z,7.562
2023-03-13T21:37:01.250Z,7.187
2023-03-13T21:40:00.670Z,7.0
2023-03-13T21:43:00.326Z,6.937
2023-03-13T21:46:01.296Z,7.0
2023-03-13T21:49:00.129Z,7.25
2023-03-13T21:52:00.123Z,7.312
2023-03-13T21:55:00.123Z,7.312
2023-03-13T21:58:00.879Z,7.375
2023-03-13T22:01:02.400Z,7.375
2023-03-13T22:03:59.858Z,7.312
2023-03-13T22:06:59.950Z,7.312
2023-03-13T22:10:01.168Z,7.25
2023-03-13T22:13:01.568Z,7.187
2023-03-13T22:16:00.335Z,7.125
2023-03-13T22:19:02.178Z,7.187
2023-03-13T22:22:00.576Z,7.25
2023-03-13T22:25:01.215Z,7.187
2023-03-13T22:28:00.843Z,7.25
2023-03-13T22:31:01.269Z,7.187
2023-03-13T22:34:01.648Z,7.312
2023-03-13T22:37:02.127Z,7.375
2023-03-13T22:40:00.646Z,7.375
2023-03-13T22:43:01.556Z,7.25
2023-03-13T22:46:01.200Z,7.312
2023-03-13T22:49:01.093Z,7.437
2023-03-13T22:52:00.104Z,7.437
2023-03-13T22:55:00.399Z,7.437
2023-03-13T22:58:00.875Z,7.375
2023-03-13T23:01:01.776Z,7.375
2023-03-13T23:04:00.919Z,7.375
2023-03-13T23:07:01.076Z,7.312
2023-03-13T23:10:00.387Z,7.312
2023-03-13T23:13:01.027Z,7.25
2023-03-13T23:16:01.027Z,7.25
2023-03-13T23:19:00.986Z,7.25
2023-03-13T23:22:00.727Z,7.25
2023-03-13T23:25:00.736Z,7.312
2023-03-13T23:28:01.451Z,7.25
2023-03-13T23:31:00.864Z,7.25
2023-03-13T23:34:00.886Z,7.187
2023-03-13T23:37:02.237Z,7.187
2023-03-13T23:40:01.468Z,7.25
2023-03-13T23:43:00.336Z,7.25
2023-03-13T23:46:00.904Z,7.125
2023-03-13T23:49:00.838Z,7.187
2023-03-13T23:52:00.596Z,7.312
2023-03-13T23:55:00.714Z,7.5
2023-03-13T23:58:00.633Z,7.5
